sensor_id;sensor_type;location;lat;lon;timestamp;P1;durP1;ratioP1;P2;durP2;ratioP2
14326;SDS011;7247;53.330;-1.180;2023-08-20T00:01:51;9.50;;;2.07;;
14326;SDS011;7247;53.330;-1.180;2023-08-20T00:04:20;6.17;;;2.20;;
14326;SDS011;7247;53.330;-1.180;2023-08-20T00:06:47;5.60;;;2.27;;
14326;SDS011;7247;53.330;-1.180;2023-08-20T00:09:14;4.90;;;2.10;;
14326;SDS011;7247;53.330;-1.180;2023-08-20T00:11:40;8.83;;;2.50;;
14326;SDS011;7247;53.330;-1.180;2023-08-20T00:14:07;5.50;;;2.07;;
14326;SDS011;7247;53.330;-1.180;2023-08-20T00:16:35;6.73;;;2.50;;
14326;SDS011;7247;53.330;-1.180;2023-08-20T00:19:01;6.23;;;2.33;;
14326;SDS011;7247;53.330;-1.180;2023-08-20T00:21:29;5.93;;;2.23;;
14326;SDS011;7247;53.330;-1.180;2023-08-20T00:23:56;5.80;;;1.90;;
14326;SDS011;7247;53.330;-1.180;2023-08-20T00:26:22;9.73;;;2.20;;
14326;SDS011;7247;53.330;-1.180;2023-08-20T00:28:49;5.27;;;2.10;;
14326;SDS011;7247;53.330;-1.180;2023-08-20T00:31:15;5.73;;;2.33;;
14326;SDS011;7247;53.330;-1.180;2023-08-20T00:33:43;6.77;;;2.00;;
14326;SDS011;7247;53.330;-1.180;2023-08-20T00:36:10;6.60;;;2.20;;
14326;SDS011;7247;53.330;-1.180;2023-08-20T00:38:36;7.67;;;2.10;;
14326;SDS011;7247;53.330;-1.180;2023-08-20T00:41:02;6.43;;;2.50;;
14326;SDS011;7247;53.330;-1.180;2023-08-20T00:43:29;7.13;;;2.30;;
14326;SDS011;7247;53.330;-1.180;2023-08-20T00:45:56;11.83;;;2.67;;
14326;SDS011;7247;53.330;-1.180;2023-08-20T00:48:23;8.97;;;2.73;;
14326;SDS011;7247;53.330;-1.180;2023-08-20T00:50:51;7.10;;;2.33;;
14326;SDS011;7247;53.330;-1.180;2023-08-20T00:53:17;8.50;;;2.30;;
14326;SDS011;7247;53.330;-1.180;2023-08-20T00:55:44;5.93;;;1.83;;
14326;SDS011;7247;53.330;-1.180;2023-08-20T00:58:11;8.20;;;2.30;;
14326;SDS011;7247;53.330;-1.180;2023-08-20T01:00:37;6.73;;;2.20;;
14326;SDS011;7247;53.330;-1.180;2023-08-20T01:03:04;6.27;;;2.13;;
14326;SDS011;7247;53.330;-1.180;2023-08-20T01:05:32;8.70;;;2.50;;
14326;SDS011;7247;53.330;-1.180;2023-08-20T01:08:04;8.80;;;2.60;;
14326;SDS011;7247;53.330;-1.180;2023-08-20T01:10:34;8.23;;;2.40;;
14326;SDS011;7247;53.330;-1.180;2023-08-20T01:13:03;8.00;;;2.47;;
14326;SDS011;7247;53.330;-1.180;2023-08-20T01:15:30;9.53;;;2.33;;
14326;SDS011;7247;53.330;-1.180;2023-08-20T01:17:57;8.83;;;2.50;;
14326;SDS011;7247;53.330;-1.180;2023-08-20T01:20:24;9.83;;;2.40;;
14326;SDS011;7247;53.330;-1.180;2023-08-20T01:22:59;6.07;;;2.27;;
14326;SDS011;7247;53.330;-1.180;2023-08-20T01:25:42;7.73;;;2.60;;
14326;SDS011;7247;53.330;-1.180;2023-08-20T01:28:20;7.23;;;2.40;;
14326;SDS011;7247;53.330;-1.180;2023-08-20T01:30:46;8.73;;;2.73;;
14326;SDS011;7247;53.330;-1.180;2023-08-20T01:33:13;5.13;;;2.50;;
14326;SDS011;7247;53.330;-1.180;2023-08-20T01:35:40;9.60;;;2.70;;
14326;SDS011;7247;53.330;-1.180;2023-08-20T01:38:06;7.10;;;2.67;;
14326;SDS011;7247;53.330;-1.180;2023-08-20T01:40:33;7.03;;;2.63;;
14326;SDS011;7247;53.330;-1.180;2023-08-20T01:43:00;7.27;;;2.87;;
14326;SDS011;7247;53.330;-1.180;2023-08-20T01:45:27;7.23;;;2.40;;
14326;SDS011;7247;53.330;-1.180;2023-08-20T01:47:54;10.50;;;2.40;;
14326;SDS011;7247;53.330;-1.180;2023-08-20T01:50:20;8.10;;;2.43;;
14326;SDS011;7247;53.330;-1.180;2023-08-20T01:52:47;7.67;;;2.77;;
14326;SDS011;7247;53.330;-1.180;2023-08-20T01:55:13;7.50;;;2.70;;
14326;SDS011;7247;53.330;-1.180;2023-08-20T01:57:39;6.00;;;2.60;;
14326;SDS011;7247;53.330;-1.180;2023-08-20T02:00:06;6.47;;;2.40;;
14326;SDS011;7247;53.330;-1.180;2023-08-20T02:02:34;8.53;;;2.40;;
14326;SDS011;7247;53.330;-1.180;2023-08-20T02:05:01;5.17;;;2.37;;
14326;SDS011;7247;53.330;-1.180;2023-08-20T02:07:27;7.43;;;2.60;;
14326;SDS011;7247;53.330;-1.180;2023-08-20T02:09:54;8.20;;;2.30;;
14326;SDS011;7247;53.330;-1.180;2023-08-20T02:12:20;9.83;;;2.17;;
14326;SDS011;7247;53.330;-1.180;2023-08-20T02:14:47;10.50;;;2.57;;
14326;SDS011;7247;53.330;-1.180;2023-08-20T02:17:12;6.33;;;2.33;;
14326;SDS011;7247;53.330;-1.180;2023-08-20T02:19:40;7.97;;;2.70;;
14326;SDS011;7247;53.330;-1.180;2023-08-20T02:22:07;8.87;;;2.47;;
14326;SDS011;7247;53.330;-1.180;2023-08-20T02:24:33;8.07;;;2.30;;
14326;SDS011;7247;53.330;-1.180;2023-08-20T02:26:59;9.33;;;2.50;;
14326;SDS011;7247;53.330;-1.180;2023-08-20T02:29:26;6.70;;;2.27;;
14326;SDS011;7247;53.330;-1.180;2023-08-20T02:31:52;9.13;;;2.10;;
14326;SDS011;7247;53.330;-1.180;2023-08-20T02:34:18;4.00;;;1.97;;
14326;SDS011;7247;53.330;-1.180;2023-08-20T02:36:46;8.00;;;2.50;;
14326;SDS011;7247;53.330;-1.180;2023-08-20T02:39:13;6.40;;;2.43;;
14326;SDS011;7247;53.330;-1.180;2023-08-20T02:41:42;9.47;;;2.50;;
14326;SDS011;7247;53.330;-1.180;2023-08-20T02:44:08;8.57;;;2.37;;
14326;SDS011;7247;53.330;-1.180;2023-08-20T02:46:35;6.60;;;2.60;;
14326;SDS011;7247;53.330;-1.180;2023-08-20T02:49:03;8.57;;;2.40;;
14326;SDS011;7247;53.330;-1.180;2023-08-20T02:51:29;6.33;;;2.50;;
14326;SDS011;7247;53.330;-1.180;2023-08-20T02:53:57;7.13;;;2.43;;
14326;SDS011;7247;53.330;-1.180;2023-08-20T02:56:23;8.47;;;2.50;;
14326;SDS011;7247;53.330;-1.180;2023-08-20T02:58:50;8.20;;;2.60;;
14326;SDS011;7247;53.330;-1.180;2023-08-20T03:01:21;11.63;;;2.73;;
14326;SDS011;7247;53.330;-1.180;2023-08-20T03:03:48;6.30;;;2.37;;
14326;SDS011;7247;53.330;-1.180;2023-08-20T03:06:14;8.43;;;2.70;;
14326;SDS011;7247;53.330;-1.180;2023-08-20T03:08:41;7.47;;;2.83;;
14326;SDS011;7247;53.330;-1.180;2023-08-20T03:11:09;6.90;;;2.70;;
14326;SDS011;7247;53.330;-1.180;2023-08-20T03:13:35;10.53;;;2.70;;
14326;SDS011;7247;53.330;-1.180;2023-08-20T03:16:01;6.63;;;2.50;;
14326;SDS011;7247;53.330;-1.180;2023-08-20T03:18:28;12.00;;;3.60;;
14326;SDS011;7247;53.330;-1.180;2023-08-20T03:20:54;10.50;;;3.10;;
14326;SDS011;7247;53.330;-1.180;2023-08-20T03:23:21;9.97;;;3.20;;
14326;SDS011;7247;53.330;-1.180;2023-08-20T03:25:48;10.50;;;2.97;;
14326;SDS011;7247;53.330;-1.180;2023-08-20T03:28:17;7.57;;;3.00;;
14326;SDS011;7247;53.330;-1.180;2023-08-20T03:30:43;8.47;;;2.77;;
14326;SDS011;7247;53.330;-1.180;2023-08-20T03:33:10;10.23;;;3.07;;
14326;SDS011;7247;53.330;-1.180;2023-08-20T03:35:36;8.83;;;2.77;;
14326;SDS011;7247;53.330;-1.180;2023-08-20T03:38:03;9.37;;;2.80;;
14326;SDS011;7247;53.330;-1.180;2023-08-20T03:40:29;6.87;;;2.40;;
14326;SDS011;7247;53.330;-1.180;2023-08-20T03:42:55;9.80;;;2.90;;
14326;SDS011;7247;53.330;-1.180;2023-08-20T03:45:23;10.77;;;3.30;;
14326;SDS011;7247;53.330;-1.180;2023-08-20T03:47:50;9.13;;;2.90;;
14326;SDS011;7247;53.330;-1.180;2023-08-20T03:50:16;8.73;;;2.83;;
14326;SDS011;7247;53.330;-1.180;2023-08-20T03:52:42;9.50;;;3.07;;
14326;SDS011;7247;53.330;-1.180;2023-08-20T03:55:09;11.63;;;3.40;;
14326;SDS011;7247;53.330;-1.180;2023-08-20T03:57:35;12.20;;;3.03;;
14326;SDS011;7247;53.330;-1.180;2023-08-20T04:00:02;9.70;;;3.17;;
14326;SDS011;7247;53.330;-1.180;2023-08-20T04:02:31;8.07;;;3.17;;
14326;SDS011;7247;53.330;-1.180;2023-08-20T04:04:58;9.20;;;3.70;;
14326;SDS011;7247;53.330;-1.180;2023-08-20T04:07:24;10.43;;;3.40;;
14326;SDS011;7247;53.330;-1.180;2023-08-20T04:09:50;7.53;;;2.97;;
14326;SDS011;7247;53.330;-1.180;2023-08-20T04:12:17;10.00;;;3.47;;
14326;SDS011;7247;53.330;-1.180;2023-08-20T04:14:43;11.10;;;3.27;;
14326;SDS011;7247;53.330;-1.180;2023-08-20T04:17:10;7.10;;;3.20;;
14326;SDS011;7247;53.330;-1.180;2023-08-20T04:19:37;10.83;;;3.43;;
14326;SDS011;7247;53.330;-1.180;2023-08-20T04:22:04;8.97;;;4.03;;
14326;SDS011;7247;53.330;-1.180;2023-08-20T04:24:30;13.63;;;3.70;;
14326;SDS011;7247;53.330;-1.180;2023-08-20T04:26:57;8.53;;;3.70;;
14326;SDS011;7247;53.330;-1.180;2023-08-20T04:29:23;12.80;;;3.90;;
14326;SDS011;7247;53.330;-1.180;2023-08-20T04:31:50;8.60;;;3.40;;
14326;SDS011;7247;53.330;-1.180;2023-08-20T04:34:16;10.90;;;3.63;;
14326;SDS011;7247;53.330;-1.180;2023-08-20T04:36:44;8.87;;;3.80;;
14326;SDS011;7247;53.330;-1.180;2023-08-20T04:39:10;8.13;;;3.70;;
14326;SDS011;7247;53.330;-1.180;2023-08-20T04:41:37;10.80;;;4.27;;
14326;SDS011;7247;53.330;-1.180;2023-08-20T04:44:03;10.33;;;3.90;;
14326;SDS011;7247;53.330;-1.180;2023-08-20T04:46:29;14.27;;;3.70;;
14326;SDS011;7247;53.330;-1.180;2023-08-20T04:48:56;12.03;;;3.83;;
14326;SDS011;7247;53.330;-1.180;2023-08-20T04:51:22;10.87;;;3.73;;
14326;SDS011;7247;53.330;-1.180;2023-08-20T04:53:50;8.77;;;3.90;;
14326;SDS011;7247;53.330;-1.180;2023-08-20T04:56:16;12.30;;;3.87;;
14326;SDS011;7247;53.330;-1.180;2023-08-20T04:58:44;11.73;;;4.23;;
14326;SDS011;7247;53.330;-1.180;2023-08-20T05:01:10;12.30;;;4.40;;
14326;SDS011;7247;53.330;-1.180;2023-08-20T05:03:36;11.17;;;4.30;;
14326;SDS011;7247;53.330;-1.180;2023-08-20T05:06:03;13.07;;;4.20;;
14326;SDS011;7247;53.330;-1.180;2023-08-20T05:08:29;10.37;;;3.93;;
14326;SDS011;7247;53.330;-1.180;2023-08-20T05:10:57;10.70;;;3.77;;
14326;SDS011;7247;53.330;-1.180;2023-08-20T05:13:23;10.80;;;4.03;;
14326;SDS011;7247;53.330;-1.180;2023-08-20T05:15:50;12.97;;;4.07;;
14326;SDS011;7247;53.330;-1.180;2023-08-20T05:18:16;12.67;;;3.90;;
14326;SDS011;7247;53.330;-1.180;2023-08-20T05:20:43;11.57;;;4.00;;
14326;SDS011;7247;53.330;-1.180;2023-08-20T05:23:09;11.40;;;4.60;;
14326;SDS011;7247;53.330;-1.180;2023-08-20T05:25:35;9.87;;;3.70;;
14326;SDS011;7247;53.330;-1.180;2023-08-20T05:28:03;12.47;;;3.90;;
14326;SDS011;7247;53.330;-1.180;2023-08-20T05:30:30;9.03;;;3.97;;
14326;SDS011;7247;53.330;-1.180;2023-08-20T05:32:56;11.50;;;4.33;;
14326;SDS011;7247;53.330;-1.180;2023-08-20T05:35:23;14.60;;;4.40;;
14326;SDS011;7247;53.330;-1.180;2023-08-20T05:37:49;11.37;;;4.20;;
14326;SDS011;7247;53.330;-1.180;2023-08-20T05:40:15;11.80;;;4.07;;
14326;SDS011;7247;53.330;-1.180;2023-08-20T05:42:42;11.20;;;4.00;;
14326;SDS011;7247;53.330;-1.180;2023-08-20T05:45:10;10.90;;;4.00;;
14326;SDS011;7247;53.330;-1.180;2023-08-20T05:47:36;12.80;;;4.43;;
14326;SDS011;7247;53.330;-1.180;2023-08-20T05:50:03;12.60;;;4.03;;
14326;SDS011;7247;53.330;-1.180;2023-08-20T05:52:29;8.80;;;3.73;;
14326;SDS011;7247;53.330;-1.180;2023-08-20T05:54:55;12.90;;;4.53;;
14326;SDS011;7247;53.330;-1.180;2023-08-20T05:57:22;8.17;;;3.57;;
14326;SDS011;7247;53.330;-1.180;2023-08-20T05:59:49;12.03;;;4.07;;
14326;SDS011;7247;53.330;-1.180;2023-08-20T06:02:17;8.70;;;3.80;;
14326;SDS011;7247;53.330;-1.180;2023-08-20T06:04:43;10.40;;;4.23;;
14326;SDS011;7247;53.330;-1.180;2023-08-20T06:07:10;12.00;;;4.03;;
14326;SDS011;7247;53.330;-1.180;2023-08-20T06:09:36;10.30;;;3.50;;
14326;SDS011;7247;53.330;-1.180;2023-08-20T06:12:03;13.30;;;4.40;;
14326;SDS011;7247;53.330;-1.180;2023-08-20T06:14:29;11.00;;;3.77;;
14326;SDS011;7247;53.330;-1.180;2023-08-20T06:16:55;10.87;;;3.70;;
14326;SDS011;7247;53.330;-1.180;2023-08-20T06:19:23;7.73;;;3.47;;
14326;SDS011;7247;53.330;-1.180;2023-08-20T06:21:50;7.57;;;3.50;;
14326;SDS011;7247;53.330;-1.180;2023-08-20T06:24:16;8.57;;;3.50;;
14326;SDS011;7247;53.330;-1.180;2023-08-20T06:26:42;13.57;;;3.93;;
14326;SDS011;7247;53.330;-1.180;2023-08-20T06:29:10;10.37;;;3.43;;
14326;SDS011;7247;53.330;-1.180;2023-08-20T06:31:36;10.83;;;3.67;;
14326;SDS011;7247;53.330;-1.180;2023-08-20T06:34:02;8.63;;;3.33;;
14326;SDS011;7247;53.330;-1.180;2023-08-20T06:36:30;12.50;;;3.87;;
14326;SDS011;7247;53.330;-1.180;2023-08-20T06:38:57;9.60;;;3.80;;
14326;SDS011;7247;53.330;-1.180;2023-08-20T06:41:23;9.93;;;3.70;;
14326;SDS011;7247;53.330;-1.180;2023-08-20T06:43:50;10.80;;;3.87;;
14326;SDS011;7247;53.330;-1.180;2023-08-20T06:46:16;9.67;;;3.70;;
14326;SDS011;7247;53.330;-1.180;2023-08-20T06:48:42;7.87;;;3.37;;
14326;SDS011;7247;53.330;-1.180;2023-08-20T06:51:10;11.50;;;3.50;;
14326;SDS011;7247;53.330;-1.180;2023-08-20T06:53:39;16.13;;;4.20;;
14326;SDS011;7247;53.330;-1.180;2023-08-20T06:56:05;9.70;;;3.87;;
14326;SDS011;7247;53.330;-1.180;2023-08-20T06:58:32;12.33;;;3.80;;
14326;SDS011;7247;53.330;-1.180;2023-08-20T07:00:58;12.47;;;4.20;;
14326;SDS011;7247;53.330;-1.180;2023-08-20T07:03:32;10.00;;;3.80;;
14326;SDS011;7247;53.330;-1.180;2023-08-20T07:05:58;10.00;;;3.40;;
14326;SDS011;7247;53.330;-1.180;2023-08-20T07:08:25;11.97;;;4.00;;
14326;SDS011;7247;53.330;-1.180;2023-08-20T07:10:52;9.17;;;3.67;;
14326;SDS011;7247;53.330;-1.180;2023-08-20T07:13:19;10.53;;;3.97;;
14326;SDS011;7247;53.330;-1.180;2023-08-20T07:15:45;14.20;;;3.70;;
14326;SDS011;7247;53.330;-1.180;2023-08-20T07:18:12;10.97;;;3.27;;
14326;SDS011;7247;53.330;-1.180;2023-08-20T07:20:40;11.17;;;3.23;;
14326;SDS011;7247;53.330;-1.180;2023-08-20T07:23:06;9.93;;;3.30;;
14326;SDS011;7247;53.330;-1.180;2023-08-20T07:25:33;12.03;;;3.87;;
14326;SDS011;7247;53.330;-1.180;2023-08-20T07:28:01;9.47;;;3.47;;
14326;SDS011;7247;53.330;-1.180;2023-08-20T07:30:28;8.90;;;3.60;;
14326;SDS011;7247;53.330;-1.180;2023-08-20T07:32:54;14.07;;;4.40;;
14326;SDS011;7247;53.330;-1.180;2023-08-20T07:35:21;11.30;;;3.30;;
14326;SDS011;7247;53.330;-1.180;2023-08-20T07:37:47;7.13;;;3.20;;
14326;SDS011;7247;53.330;-1.180;2023-08-20T07:40:14;9.17;;;3.20;;
14326;SDS011;7247;53.330;-1.180;2023-08-20T07:42:40;9.33;;;3.17;;
14326;SDS011;7247;53.330;-1.180;2023-08-20T07:45:08;10.43;;;3.60;;
14326;SDS011;7247;53.330;-1.180;2023-08-20T07:47:35;9.47;;;3.37;;
14326;SDS011;7247;53.330;-1.180;2023-08-20T07:50:02;9.80;;;3.37;;
14326;SDS011;7247;53.330;-1.180;2023-08-20T07:52:29;8.97;;;3.43;;
14326;SDS011;7247;53.330;-1.180;2023-08-20T07:54:56;8.77;;;3.00;;
14326;SDS011;7247;53.330;-1.180;2023-08-20T07:57:26;10.53;;;3.13;;
14326;SDS011;7247;53.330;-1.180;2023-08-20T07:59:52;8.47;;;3.30;;
14326;SDS011;7247;53.330;-1.180;2023-08-20T08:02:20;9.23;;;3.27;;
14326;SDS011;7247;53.330;-1.180;2023-08-20T08:04:46;7.13;;;2.93;;
14326;SDS011;7247;53.330;-1.180;2023-08-20T08:07:13;8.43;;;3.07;;
14326;SDS011;7247;53.330;-1.180;2023-08-20T08:09:39;10.00;;;3.30;;
14326;SDS011;7247;53.330;-1.180;2023-08-20T08:12:05;10.20;;;3.30;;
14326;SDS011;7247;53.330;-1.180;2023-08-20T08:14:32;9.43;;;3.20;;
14326;SDS011;7247;53.330;-1.180;2023-08-20T08:16:58;12.70;;;3.33;;
14326;SDS011;7247;53.330;-1.180;2023-08-20T08:19:26;9.60;;;3.20;;
14326;SDS011;7247;53.330;-1.180;2023-08-20T08:21:53;7.00;;;2.60;;
14326;SDS011;7247;53.330;-1.180;2023-08-20T08:24:20;8.47;;;2.90;;
14326;SDS011;7247;53.330;-1.180;2023-08-20T08:26:47;9.13;;;3.00;;
14326;SDS011;7247;53.330;-1.180;2023-08-20T08:29:13;8.20;;;2.77;;
14326;SDS011;7247;53.330;-1.180;2023-08-20T08:31:40;8.40;;;2.70;;
14326;SDS011;7247;53.330;-1.180;2023-08-20T08:34:06;6.77;;;2.43;;
14326;SDS011;7247;53.330;-1.180;2023-08-20T08:36:34;9.23;;;2.50;;
14326;SDS011;7247;53.330;-1.180;2023-08-20T08:39:00;6.23;;;2.20;;
14326;SDS011;7247;53.330;-1.180;2023-08-20T08:41:27;7.43;;;2.50;;
14326;SDS011;7247;53.330;-1.180;2023-08-20T08:43:54;8.07;;;2.60;;
14326;SDS011;7247;53.330;-1.180;2023-08-20T08:46:21;6.40;;;2.13;;
14326;SDS011;7247;53.330;-1.180;2023-08-20T08:48:49;6.80;;;2.13;;
14326;SDS011;7247;53.330;-1.180;2023-08-20T08:51:16;7.73;;;2.30;;
14326;SDS011;7247;53.330;-1.180;2023-08-20T08:53:44;6.77;;;2.33;;
14326;SDS011;7247;53.330;-1.180;2023-08-20T08:56:10;7.60;;;2.50;;
14326;SDS011;7247;53.330;-1.180;2023-08-20T08:58:36;9.80;;;2.80;;
14326;SDS011;7247;53.330;-1.180;2023-08-20T09:01:03;6.53;;;3.03;;
14326;SDS011;7247;53.330;-1.180;2023-08-20T09:03:29;10.70;;;2.83;;
14326;SDS011;7247;53.330;-1.180;2023-08-20T09:05:57;8.83;;;2.53;;
14326;SDS011;7247;53.330;-1.180;2023-08-20T09:08:26;5.60;;;2.23;;
14326;SDS011;7247;53.330;-1.180;2023-08-20T09:10:55;5.57;;;2.30;;
14326;SDS011;7247;53.330;-1.180;2023-08-20T09:13:22;5.53;;;2.33;;
14326;SDS011;7247;53.330;-1.180;2023-08-20T09:15:50;6.80;;;2.20;;
14326;SDS011;7247;53.330;-1.180;2023-08-20T09:18:16;7.20;;;2.40;;
14326;SDS011;7247;53.330;-1.180;2023-08-20T09:20:43;6.03;;;1.93;;
14326;SDS011;7247;53.330;-1.180;2023-08-20T09:23:10;6.80;;;2.53;;
14326;SDS011;7247;53.330;-1.180;2023-08-20T09:25:37;7.00;;;2.30;;
14326;SDS011;7247;53.330;-1.180;2023-08-20T09:28:05;4.67;;;1.93;;
14326;SDS011;7247;53.330;-1.180;2023-08-20T09:30:31;4.93;;;1.77;;
14326;SDS011;7247;53.330;-1.180;2023-08-20T09:33:04;6.87;;;1.80;;
14326;SDS011;7247;53.330;-1.180;2023-08-20T09:35:31;6.10;;;2.33;;
14326;SDS011;7247;53.330;-1.180;2023-08-20T09:38:00;5.53;;;1.90;;
14326;SDS011;7247;53.330;-1.180;2023-08-20T09:40:27;5.67;;;1.80;;
14326;SDS011;7247;53.330;-1.180;2023-08-20T09:42:53;5.60;;;1.90;;
14326;SDS011;7247;53.330;-1.180;2023-08-20T09:45:21;6.20;;;2.20;;
14326;SDS011;7247;53.330;-1.180;2023-08-20T09:47:50;7.13;;;2.10;;
14326;SDS011;7247;53.330;-1.180;2023-08-20T09:50:19;7.90;;;2.20;;
14326;SDS011;7247;53.330;-1.180;2023-08-20T09:52:48;6.23;;;2.00;;
14326;SDS011;7247;53.330;-1.180;2023-08-20T09:55:20;5.90;;;1.80;;
14326;SDS011;7247;53.330;-1.180;2023-08-20T09:57:47;6.03;;;2.03;;
14326;SDS011;7247;53.330;-1.180;2023-08-20T10:00:14;5.37;;;1.83;;
14326;SDS011;7247;53.330;-1.180;2023-08-20T10:02:42;4.60;;;1.63;;
14326;SDS011;7247;53.330;-1.180;2023-08-20T10:05:09;8.37;;;1.97;;
14326;SDS011;7247;53.330;-1.180;2023-08-20T10:07:35;4.20;;;1.77;;
14326;SDS011;7247;53.330;-1.180;2023-08-20T10:10:03;4.37;;;1.70;;
14326;SDS011;7247;53.330;-1.180;2023-08-20T10:12:30;5.60;;;1.83;;
14326;SDS011;7247;53.330;-1.180;2023-08-20T10:14:56;6.63;;;1.70;;
14326;SDS011;7247;53.330;-1.180;2023-08-20T10:17:23;5.67;;;1.90;;
14326;SDS011;7247;53.330;-1.180;2023-08-20T10:19:51;4.53;;;1.80;;
14326;SDS011;7247;53.330;-1.180;2023-08-20T10:22:18;5.17;;;1.73;;
14326;SDS011;7247;53.330;-1.180;2023-08-20T10:24:48;4.03;;;1.60;;
14326;SDS011;7247;53.330;-1.180;2023-08-20T10:27:23;5.47;;;1.67;;
14326;SDS011;7247;53.330;-1.180;2023-08-20T10:29:50;7.43;;;1.97;;
14326;SDS011;7247;53.330;-1.180;2023-08-20T10:32:18;4.77;;;1.50;;
14326;SDS011;7247;53.330;-1.180;2023-08-20T10:34:49;4.93;;;1.60;;
14326;SDS011;7247;53.330;-1.180;2023-08-20T10:37:20;6.03;;;1.80;;
14326;SDS011;7247;53.330;-1.180;2023-08-20T10:39:53;6.17;;;2.00;;
14326;SDS011;7247;53.330;-1.180;2023-08-20T10:42:23;4.50;;;1.50;;
14326;SDS011;7247;53.330;-1.180;2023-08-20T10:44:58;3.67;;;1.60;;
14326;SDS011;7247;53.330;-1.180;2023-08-20T10:47:24;4.20;;;2.00;;
14326;SDS011;7247;53.330;-1.180;2023-08-20T10:49:51;7.17;;;2.07;;
14326;SDS011;7247;53.330;-1.180;2023-08-20T10:52:19;4.77;;;1.70;;
14326;SDS011;7247;53.330;-1.180;2023-08-20T10:54:49;4.63;;;2.00;;
14326;SDS011;7247;53.330;-1.180;2023-08-20T10:57:15;5.60;;;2.10;;
14326;SDS011;7247;53.330;-1.180;2023-08-20T10:59:41;5.00;;;1.90;;
14326;SDS011;7247;53.330;-1.180;2023-08-20T11:02:09;5.70;;;1.83;;
14326;SDS011;7247;53.330;-1.180;2023-08-20T11:04:39;4.20;;;1.75;;
14326;SDS011;7247;53.330;-1.180;2023-08-20T11:07:05;4.45;;;1.80;;
14326;SDS011;7247;53.330;-1.180;2023-08-20T11:09:33;3.95;;;1.55;;
14326;SDS011;7247;53.330;-1.180;2023-08-20T11:12:00;2.90;;;1.40;;
14326;SDS011;7247;53.330;-1.180;2023-08-20T11:14:27;5.13;;;2.03;;
14326;SDS011;7247;53.330;-1.180;2023-08-20T11:16:53;6.50;;;2.17;;
14326;SDS011;7247;53.330;-1.180;2023-08-20T11:19:20;6.83;;;2.00;;
14326;SDS011;7247;53.330;-1.180;2023-08-20T11:21:47;3.57;;;1.70;;
14326;SDS011;7247;53.330;-1.180;2023-08-20T11:24:14;5.20;;;2.20;;
14326;SDS011;7247;53.330;-1.180;2023-08-20T11:26:42;5.33;;;1.80;;
14326;SDS011;7247;53.330;-1.180;2023-08-20T11:29:09;4.70;;;1.90;;
14326;SDS011;7247;53.330;-1.180;2023-08-20T11:31:37;4.10;;;1.60;;
14326;SDS011;7247;53.330;-1.180;2023-08-20T11:34:04;2.92;;;1.60;;
14326;SDS011;7247;53.330;-1.180;2023-08-20T11:36:31;5.07;;;1.80;;
14326;SDS011;7247;53.330;-1.180;2023-08-20T11:38:58;4.03;;;1.63;;
14326;SDS011;7247;53.330;-1.180;2023-08-20T11:41:24;3.03;;;1.42;;
14326;SDS011;7247;53.330;-1.180;2023-08-20T11:43:52;2.00;;;1.42;;
14326;SDS011;7247;53.330;-1.180;2023-08-20T11:46:19;4.85;;;1.77;;
14326;SDS011;7247;53.330;-1.180;2023-08-20T11:48:59;3.35;;;2.20;;
14326;SDS011;7247;53.330;-1.180;2023-08-20T11:51:25;3.30;;;1.58;;
14326;SDS011;7247;53.330;-1.180;2023-08-20T11:53:52;3.90;;;1.67;;
14326;SDS011;7247;53.330;-1.180;2023-08-20T11:56:18;3.40;;;1.52;;
14326;SDS011;7247;53.330;-1.180;2023-08-20T11:58:49;5.57;;;1.98;;
14326;SDS011;7247;53.330;-1.180;2023-08-20T12:01:17;3.05;;;1.70;;
14326;SDS011;7247;53.330;-1.180;2023-08-20T12:03:43;2.30;;;1.50;;
14326;SDS011;7247;53.330;-1.180;2023-08-20T12:06:17;4.07;;;1.60;;
14326;SDS011;7247;53.330;-1.180;2023-08-20T12:08:43;3.58;;;1.70;;
14326;SDS011;7247;53.330;-1.180;2023-08-20T12:11:10;2.28;;;1.45;;
14326;SDS011;7247;53.330;-1.180;2023-08-20T12:13:36;2.85;;;1.40;;
14326;SDS011;7247;53.330;-1.180;2023-08-20T12:16:03;3.25;;;1.60;;
14326;SDS011;7247;53.330;-1.180;2023-08-20T12:18:30;4.47;;;1.52;;
14326;SDS011;7247;53.330;-1.180;2023-08-20T12:20:57;2.90;;;1.67;;
14326;SDS011;7247;53.330;-1.180;2023-08-20T12:23:23;3.33;;;1.90;;
14326;SDS011;7247;53.330;-1.180;2023-08-20T12:25:50;3.80;;;1.70;;
14326;SDS011;7247;53.330;-1.180;2023-08-20T12:28:17;3.00;;;1.60;;
14326;SDS011;7247;53.330;-1.180;2023-08-20T12:30:43;4.07;;;1.90;;
14326;SDS011;7247;53.330;-1.180;2023-08-20T12:33:10;3.23;;;1.83;;
14326;SDS011;7247;53.330;-1.180;2023-08-20T12:35:38;3.37;;;1.50;;
14326;SDS011;7247;53.330;-1.180;2023-08-20T12:38:05;4.53;;;1.70;;
14326;SDS011;7247;53.330;-1.180;2023-08-20T12:40:32;3.17;;;1.43;;
14326;SDS011;7247;53.330;-1.180;2023-08-20T12:42:59;3.30;;;1.80;;
14326;SDS011;7247;53.330;-1.180;2023-08-20T12:45:25;3.13;;;1.50;;
14326;SDS011;7247;53.330;-1.180;2023-08-20T12:47:52;4.53;;;1.67;;
14326;SDS011;7247;53.330;-1.180;2023-08-20T12:50:18;2.87;;;1.53;;
14326;SDS011;7247;53.330;-1.180;2023-08-20T12:52:46;4.37;;;1.80;;
14326;SDS011;7247;53.330;-1.180;2023-08-20T12:55:15;3.80;;;1.67;;
14326;SDS011;7247;53.330;-1.180;2023-08-20T12:57:52;2.87;;;1.60;;
14326;SDS011;7247;53.330;-1.180;2023-08-20T13:00:18;3.60;;;1.50;;
14326;SDS011;7247;53.330;-1.180;2023-08-20T13:02:45;4.75;;;1.70;;
14326;SDS011;7247;53.330;-1.180;2023-08-20T13:05:12;2.92;;;1.70;;
14326;SDS011;7247;53.330;-1.180;2023-08-20T13:07:39;3.40;;;1.63;;
14326;SDS011;7247;53.330;-1.180;2023-08-20T13:10:07;3.42;;;1.75;;
14326;SDS011;7247;53.330;-1.180;2023-08-20T13:12:34;3.88;;;1.67;;
14326;SDS011;7247;53.330;-1.180;2023-08-20T13:15:01;4.18;;;2.00;;
14326;SDS011;7247;53.330;-1.180;2023-08-20T13:17:30;3.85;;;2.00;;
14326;SDS011;7247;53.330;-1.180;2023-08-20T13:19:57;3.47;;;1.90;;
14326;SDS011;7247;53.330;-1.180;2023-08-20T13:22:23;3.53;;;1.88;;
14326;SDS011;7247;53.330;-1.180;2023-08-20T13:24:50;4.57;;;1.90;;
14326;SDS011;7247;53.330;-1.180;2023-08-20T13:27:17;4.50;;;2.05;;
14326;SDS011;7247;53.330;-1.180;2023-08-20T13:29:44;4.35;;;2.05;;
14326;SDS011;7247;53.330;-1.180;2023-08-20T13:32:10;7.15;;;1.80;;
14326;SDS011;7247;53.330;-1.180;2023-08-20T13:34:36;2.50;;;1.75;;
14326;SDS011;7247;53.330;-1.180;2023-08-20T13:37:03;4.28;;;1.80;;
14326;SDS011;7247;53.330;-1.180;2023-08-20T13:39:29;3.40;;;2.13;;
14326;SDS011;7247;53.330;-1.180;2023-08-20T13:41:56;3.63;;;2.10;;
14326;SDS011;7247;53.330;-1.180;2023-08-20T13:44:23;5.15;;;1.88;;
14326;SDS011;7247;53.330;-1.180;2023-08-20T13:46:50;4.68;;;2.00;;
14326;SDS011;7247;53.330;-1.180;2023-08-20T13:49:16;4.88;;;2.15;;
14326;SDS011;7247;53.330;-1.180;2023-08-20T13:51:43;5.30;;;2.40;;
14326;SDS011;7247;53.330;-1.180;2023-08-20T13:54:09;5.13;;;2.30;;
14326;SDS011;7247;53.330;-1.180;2023-08-20T13:56:35;4.43;;;2.10;;
14326;SDS011;7247;53.330;-1.180;2023-08-20T13:59:02;3.78;;;1.85;;
14326;SDS011;7247;53.330;-1.180;2023-08-20T14:01:30;3.90;;;1.95;;
14326;SDS011;7247;53.330;-1.180;2023-08-20T14:03:56;5.28;;;1.88;;
14326;SDS011;7247;53.330;-1.180;2023-08-20T14:06:22;2.80;;;1.92;;
14326;SDS011;7247;53.330;-1.180;2023-08-20T14:08:49;3.95;;;1.88;;
14326;SDS011;7247;53.330;-1.180;2023-08-20T14:11:15;4.60;;;1.60;;
14326;SDS011;7247;53.330;-1.180;2023-08-20T14:13:42;4.80;;;1.70;;
14326;SDS011;7247;53.330;-1.180;2023-08-20T14:16:08;4.30;;;1.47;;
14326;SDS011;7247;53.330;-1.180;2023-08-20T14:18:36;2.77;;;1.70;;
14326;SDS011;7247;53.330;-1.180;2023-08-20T14:21:02;3.37;;;1.60;;
14326;SDS011;7247;53.330;-1.180;2023-08-20T14:23:29;3.00;;;1.23;;
14326;SDS011;7247;53.330;-1.180;2023-08-20T14:25:55;2.47;;;1.37;;
14326;SDS011;7247;53.330;-1.180;2023-08-20T14:28:22;1.80;;;1.40;;
14326;SDS011;7247;53.330;-1.180;2023-08-20T14:30:49;1.67;;;1.30;;
14326;SDS011;7247;53.330;-1.180;2023-08-20T14:33:16;2.13;;;1.30;;
14326;SDS011;7247;53.330;-1.180;2023-08-20T14:35:44;3.17;;;1.30;;
14326;SDS011;7247;53.330;-1.180;2023-08-20T14:38:11;2.53;;;1.40;;
14326;SDS011;7247;53.330;-1.180;2023-08-20T14:40:37;2.67;;;1.17;;
14326;SDS011;7247;53.330;-1.180;2023-08-20T14:43:04;2.13;;;1.20;;
14326;SDS011;7247;53.330;-1.180;2023-08-20T14:45:31;3.05;;;1.45;;